Time;durP1;ratioP1;P1;durP2;ratioP2;P2;SDS_P1;SDS_P2;PMS_P1;PMS_P2;Temp;Humidity;BMP_temperature;BMP_pressure;BME280_temperature;BME280_humidity;BME280_pressure;Samples;Min_cycle;Max_cycle;Signal;HPM_P1;HPM_P2
2023/04/12 00:04:40;;;;;;;3.53;3.23;;;11.90;77.80;;;;;;10395932;28;20202;-82
2023/04/12 00:09:42;;;;;;;4.80;2.90;;;11.90;79.90;;;;;;10424426;28;20261;-82
2023/04/12 00:14:46;;;;;;;8.47;3.97;;;11.90;79.60;;;;;;10422119;28;20658;-83
2023/04/12 00:19:49;;;;;;;4.10;3.60;;;11.70;81.70;;;;;;10399464;28;20211;-83
2023/04/12 00:24:52;;;;;;;3.77;3.40;;;11.70;84.20;;;;;;10418928;28;20261;-83
2023/04/12 00:29:56;;;;;;;3.50;3.10;;;11.60;85.50;;;;;;10418478;28;20318;-83
2023/04/12 00:34:58;;;;;;;8.50;3.30;;;11.60;86.30;;;;;;10401282;28;20194;-83
2023/04/12 00:40:00;;;;;;;3.90;3.60;;;11.60;88.40;;;;;;10416864;28;20257;-82
2023/04/12 00:45:05;;;;;;;4.57;3.87;;;11.40;90.90;;;;;;10417855;28;20194;-82
2023/04/12 00:50:09;;;;;;;8.30;4.10;;;11.30;92.30;;;;;;10418631;28;20293;-83
2023/04/12 00:55:11;;;;;;;6.17;4.57;;;11.10;93.40;;;;;;10419880;28;20184;-82
2023/04/12 01:00:16;;;;;;;4.87;4.40;;;10.90;94.30;;;;;;10414198;28;20242;-83
2023/04/12 01:05:21;;;;;;;5.00;4.60;;;10.70;95.40;;;;;;10398469;28;20213;-83
2023/04/12 01:10:33;;;;;;;5.80;5.20;;;10.50;96.50;;;;;;10417357;28;20270;-82
2023/04/12 01:15:41;;;;;;;5.47;5.07;;;10.40;97.30;;;;;;10400239;28;20742;-83
2023/04/12 01:20:51;;;;;;;5.83;5.33;;;10.30;97.70;;;;;;10400899;28;20233;-83
2023/04/12 01:26:20;;;;;;;6.23;5.60;;;10.20;98.50;;;;;;10401581;28;20213;-83
2023/04/12 01:31:24;;;;;;;7.07;5.63;;;10.10;99.00;;;;;;10417312;28;20276;-83
2023/04/12 01:36:28;;;;;;;7.77;6.50;;;10.10;99.90;;;;;;10400631;28;20599;-83
2023/04/12 01:41:31;;;;;;;6.63;5.90;;;10.00;99.90;;;;;;10401498;28;20225;-83
2023/04/12 01:46:36;;;;;;;8.00;7.10;;;10.00;99.90;;;;;;10417787;28;20206;-83
2023/04/12 01:51:47;;;;;;;18.00;13.00;;;10.00;99.90;;;;;;10418915;28;20652;-83
2023/04/12 01:56:54;;;;;;;9.23;8.43;;;10.00;99.90;;;;;;10402533;28;20252;-83
2023/04/12 02:01:58;;;;;;;9.80;9.10;;;9.80;99.90;;;;;;10402267;28;20220;-83
2023/04/12 02:07:00;;;;;;;10.60;9.90;;;9.60;99.90;;;;;;10420282;28;20233;-83
2023/04/12 02:12:02;;;;;;;11.73;10.83;;;9.60;99.90;;;;;;10415530;28;20194;-83
2023/04/12 02:17:07;;;;;;;10.83;10.13;;;9.60;99.90;;;;;;10404751;28;20272;-82
2023/04/12 02:22:09;;;;;;;13.50;11.57;;;9.70;99.90;;;;;;10424071;28;20248;-83
2023/04/12 02:27:11;;;;;;;13.63;12.73;;;9.70;99.90;;;;;;10403036;28;20263;-83
2023/04/12 02:32:15;;;;;;;12.40;11.70;;;9.70;99.90;;;;;;10404926;28;20200;-82
2023/04/12 02:37:20;;;;;;;12.73;11.80;;;9.60;99.90;;;;;;10421080;28;20284;-82
2023/04/12 02:42:22;;;;;;;15.67;14.00;;;9.60;99.90;;;;;;10422205;28;20305;-82
2023/04/12 02:47:28;;;;;;;13.30;12.30;;;9.60;99.90;;;;;;10404516;28;20241;-82
2023/04/12 02:52:32;;;;;;;14.70;13.77;;;9.60;99.90;;;;;;10404823;28;20590;-83
2023/04/12 02:57:46;;;;;;;15.00;14.07;;;9.60;99.90;;;;;;10405252;28;20215;-82
2023/04/12 03:02:51;;;;;;;13.73;12.67;;;9.60;99.90;;;;;;10403980;28;20225;-83
2023/04/12 03:07:58;;;;;;;14.43;13.53;;;9.50;99.90;;;;;;10454508;22;20242;-81
2023/04/12 03:13:21;;;;;;;12.67;11.87;;;9.40;99.90;;;;;;10522140;28;20276;-82
2023/04/12 03:18:27;;;;;;;15.10;14.10;;;9.30;99.90;;;;;;10527445;28;20220;-81
2023/04/12 03:23:29;;;;;;;13.97;13.03;;;9.30;99.90;;;;;;10524681;28;20286;-82
2023/04/12 03:28:41;;;;;;;15.13;13.90;;;9.30;99.90;;;;;;10531650;28;20642;-81
2023/04/12 03:33:45;;;;;;;14.27;13.47;;;9.30;99.90;;;;;;10521110;28;20227;-83
2023/04/12 03:39:07;;;;;;;15.80;14.57;;;9.30;99.90;;;;;;10531268;28;20231;-80
2023/04/12 03:44:13;;;;;;;14.93;13.93;;;9.30;99.90;;;;;;10525979;28;20300;-79
2023/04/12 03:49:17;;;;;;;16.13;14.83;;;9.30;99.90;;;;;;10522396;28;20792;-79
2023/04/12 03:54:23;;;;;;;15.00;13.73;;;9.30;99.90;;;;;;10531092;28;20212;-81
2023/04/12 03:59:32;;;;;;;14.53;13.60;;;9.40;99.90;;;;;;10508760;28;20295;-81
2023/04/12 04:04:37;;;;;;;16.10;14.90;;;9.50;99.90;;;;;;10538925;28;20221;-81
2023/04/12 04:09:43;;;;;;;14.17;12.97;;;9.50;99.90;;;;;;10524740;28;20238;-81
2023/04/12 04:14:46;;;;;;;15.03;13.90;;;9.50;99.90;;;;;;10504072;28;20199;-80
2023/04/12 04:20:00;;;;;;;14.93;13.87;;;9.50;99.90;;;;;;10497782;28;20211;-80
2023/04/12 04:25:07;;;;;;;13.27;12.07;;;9.40;99.90;;;;;;10513015;28;20654;-81
2023/04/12 04:30:14;;;;;;;14.33;13.20;;;9.40;99.90;;;;;;10518019;28;20631;-81
2023/04/12 04:35:23;;;;;;;16.23;15.30;;;9.30;99.90;;;;;;10494435;28;20197;-81
2023/04/12 04:40:45;;;;;;;17.77;16.57;;;9.20;99.90;;;;;;10521961;28;20281;-81
2023/04/12 04:45:53;;;;;;;11.77;10.97;;;9.10;99.90;;;;;;10527879;28;20248;-81
2023/04/12 04:51:01;;;;;;;16.37;15.07;;;9.10;99.90;;;;;;10513184;28;20218;-81
2023/04/12 04:56:04;;;;;;;13.57;12.67;;;9.00;99.90;;;;;;10508364;28;20205;-81
2023/04/12 05:01:12;;;;;;;15.43;14.33;;;9.00;99.90;;;;;;10502255;28;20213;-81
2023/04/12 05:06:15;;;;;;;15.43;14.30;;;9.00;99.90;;;;;;10512464;28;20197;-80
2023/04/12 05:11:18;;;;;;;15.77;14.60;;;8.90;99.90;;;;;;10493026;28;20235;-81
2023/04/12 05:16:21;;;;;;;16.60;15.50;;;8.90;99.90;;;;;;10523547;28;20216;-81
2023/04/12 05:21:25;;;;;;;12.80;12.00;;;8.90;99.90;;;;;;10522850;28;20243;-80
2023/04/12 05:26:27;;;;;;;13.20;12.30;;;8.90;99.90;;;;;;10525296;28;20204;-80
2023/04/12 05:31:29;;;;;;;15.07;14.13;;;8.90;99.90;;;;;;10538953;28;20229;-80
2023/04/12 05:36:36;;;;;;;13.20;12.30;;;8.90;99.90;;;;;;10534246;28;20197;-81
2023/04/12 05:41:39;;;;;;;15.80;14.70;;;8.90;99.90;;;;;;10506286;28;20279;-79
2023/04/12 05:46:41;;;;;;;13.53;12.73;;;9.00;99.90;;;;;;10524726;28;20196;-78
2023/04/12 05:51:45;;;;;;;17.47;16.20;;;9.00;99.90;;;;;;10526025;28;20242;-79
2023/04/12 05:56:56;;;;;;;13.60;12.57;;;9.00;99.90;;;;;;10519832;28;20212;-79
2023/04/12 06:02:00;;;;;;;13.43;12.63;;;8.90;99.90;;;;;;10513254;28;20755;-79
2023/04/12 06:07:05;;;;;;;14.40;13.50;;;8.90;99.90;;;;;;10519053;28;20197;-79
2023/04/12 06:12:07;;;;;;;14.67;13.60;;;8.90;99.90;;;;;;10534895;28;20598;-79
2023/04/12 06:17:11;;;;;;;12.60;11.90;;;8.90;99.90;;;;;;10513632;28;20615;-79
2023/04/12 06:22:16;;;;;;;11.63;10.83;;;8.90;99.90;;;;;;10518410;28;20217;-79
2023/04/12 06:27:21;;;;;;;13.83;12.83;;;8.90;99.90;;;;;;10512601;28;20552;-78
2023/04/12 06:32:24;;;;;;;13.30;12.40;;;8.90;99.90;;;;;;10516275;28;20203;-79
2023/04/12 06:37:29;;;;;;;12.93;12.23;;;9.00;99.90;;;;;;10520455;28;20579;-79
2023/04/12 06:42:31;;;;;;;10.87;10.20;;;9.00;99.90;;;;;;10518398;28;20331;-79
2023/04/12 06:47:33;;;;;;;12.23;11.43;;;9.00;99.90;;;;;;10511986;28;20220;-79
2023/04/12 06:52:36;;;;;;;11.00;10.30;;;9.10;99.90;;;;;;10521720;28;20199;-79
2023/04/12 06:57:39;;;;;;;13.37;12.37;;;9.20;99.90;;;;;;10525582;28;20611;-79
2023/04/12 07:02:41;;;;;;;9.97;9.37;;;9.30;99.90;;;;;;10530746;28;20215;-79
2023/04/12 07:07:45;;;;;;;12.03;11.33;;;9.40;99.90;;;;;;10510860;28;20403;-79
2023/04/12 07:12:48;;;;;;;11.13;10.53;;;9.50;99.90;;;;;;10526696;28;20183;-79
2023/04/12 07:17:50;;;;;;;12.67;11.87;;;9.50;99.90;;;;;;10523200;28;20236;-79
2023/04/12 07:22:54;;;;;;;11.40;10.53;;;9.50;99.90;;;;;;10535756;28;20637;-80
2023/04/12 07:27:56;;;;;;;11.60;10.93;;;9.50;99.90;;;;;;10528673;28;20242;-79
2023/04/12 07:32:59;;;;;;;12.80;12.10;;;9.60;99.90;;;;;;10531237;28;20195;-79
2023/04/12 07:38:03;;;;;;;10.33;9.73;;;9.70;99.90;;;;;;10524444;28;20603;-79
2023/04/12 07:43:05;;;;;;;12.60;11.80;;;9.80;99.90;;;;;;10528961;28;20214;-80
2023/04/12 07:48:07;;;;;;;8.53;8.03;;;9.80;99.90;;;;;;10523368;28;20295;-79
2023/04/12 07:53:21;;;;;;;11.53;10.80;;;9.90;99.90;;;;;;10543601;28;20213;-79
2023/04/12 07:58:24;;;;;;;10.23;9.63;;;10.00;99.90;;;;;;10527623;28;20246;-80
2023/04/12 08:03:26;;;;;;;8.77;8.17;;;10.10;99.90;;;;;;10525563;28;20223;-79
2023/04/12 08:08:30;;;;;;;8.67;8.07;;;10.10;99.90;;;;;;10529711;28;20270;-80
2023/04/12 08:13:32;;;;;;;6.20;5.90;;;10.10;99.90;;;;;;10513868;28;20189;-80
2023/04/12 08:18:34;;;;;;;8.30;7.83;;;10.20;99.90;;;;;;10505018;28;20313;-80
2023/04/12 08:23:38;;;;;;;8.10;7.50;;;10.30;99.90;;;;;;10520947;28;20697;-80
2023/04/12 08:28:40;;;;;;;7.10;6.70;;;10.40;99.90;;;;;;10531419;28;20219;-79
2023/04/12 08:33:42;;;;;;;8.00;7.50;;;10.40;99.90;;;;;;10536589;28;20717;-79
2023/04/12 08:38:45;;;;;;;6.90;6.50;;;10.40;99.90;;;;;;10525616;28;20231;-79
2023/04/12 08:43:47;;;;;;;6.20;5.80;;;10.60;99.90;;;;;;10516311;28;20223;-79
2023/04/12 08:48:53;;;;;;;7.10;6.70;;;10.60;99.90;;;;;;10527468;28;20298;-80
2023/04/12 08:53:56;;;;;;;8.53;7.83;;;10.60;99.90;;;;;;10520709;28;20223;-79
2023/04/12 08:59:00;;;;;;;7.20;6.80;;;10.70;99.90;;;;;;10519479;28;20236;-79
2023/04/12 09:04:06;;;;;;;6.37;6.07;;;10.70;99.90;;;;;;10527441;28;20220;-79
2023/04/12 09:09:10;;;;;;;7.27;6.60;;;10.70;99.90;;;;;;10518653;28;20250;-80
2023/04/12 09:14:22;;;;;;;7.80;7.27;;;10.80;99.90;;;;;;10542228;28;20248;-80
2023/04/12 09:19:32;;;;;;;7.43;7.13;;;10.80;99.90;;;;;;10529267;28;20637;-80
2023/04/12 09:24:46;;;;;;;7.33;6.73;;;10.90;99.90;;;;;;10519981;28;20221;-80
2023/04/12 09:29:51;;;;;;;9.70;8.93;;;11.00;99.90;;;;;;10529445;28;20223;-79
2023/04/12 09:34:57;;;;;;;8.80;8.40;;;11.10;99.90;;;;;;10532660;28;20193;-80
2023/04/12 09:40:03;;;;;;;10.70;10.00;;;11.40;99.90;;;;;;10533908;28;20259;-79
2023/04/12 09:45:20;;;;;;;7.13;6.17;;;11.50;99.90;;;;;;10529365;28;20219;-80
2023/04/12 09:50:24;;;;;;;9.00;8.47;;;11.70;99.90;;;;;;10530726;28;20204;-79
2023/04/12 09:55:30;;;;;;;9.30;8.50;;;11.80;99.90;;;;;;10529535;28;20213;-80
2023/04/12 10:00:34;;;;;;;9.00;8.50;;;11.80;99.90;;;;;;10527050;28;20211;-79
2023/04/12 10:05:39;;;;;;;7.90;7.53;;;11.90;99.90;;;;;;10501926;28;20196;-79
2023/04/12 10:10:45;;;;;;;7.57;7.10;;;12.00;99.90;;;;;;10518821;28;20234;-79
2023/04/12 10:15:50;;;;;;;7.57;7.07;;;12.10;99.90;;;;;;10526830;28;20188;-80
2023/04/12 10:20:52;;;;;;;6.23;5.90;;;12.30;99.90;;;;;;10521818;28;20213;-80
2023/04/12 10:25:58;;;;;;;6.87;6.37;;;12.50;99.90;;;;;;10521769;28;20197;-80
2023/04/12 10:31:28;;;;;;;6.57;6.20;;;12.70;99.90;;;;;;10546499;28;20227;-80
2023/04/12 10:36:51;;;;;;;6.03;5.53;;;12.90;99.90;;;;;;10521101;28;20193;-80
2023/04/12 10:42:30;;;;;;;6.33;4.60;;;13.20;99.90;;;;;;10534688;28;20310;-80
2023/04/12 10:48:00;;;;;;;5.23;4.80;;;13.60;99.90;;;;;;10520413;28;20220;-79
2023/04/12 10:53:23;;;;;;;8.80;8.00;;;13.80;99.90;;;;;;10514609;28;20728;-80
2023/04/12 10:59:00;;;;;;;5.30;4.60;;;13.90;99.90;;;;;;10543128;28;20212;-80
2023/04/12 11:04:15;;;;;;;6.97;3.90;;;13.90;99.90;;;;;;10506130;28;20221;-80
2023/04/12 11:09:25;;;;;;;7.00;6.43;;;14.00;99.90;;;;;;10504266;28;20231;-80
2023/04/12 11:14:30;;;;;;;3.50;3.20;;;14.10;99.90;;;;;;10547482;28;20199;-80
2023/04/12 11:19:34;;;;;;;4.17;3.80;;;14.30;99.90;;;;;;10507393;28;20220;-80
2023/04/12 11:24:38;;;;;;;3.50;3.20;;;14.50;99.90;;;;;;10509718;28;20545;-80
2023/04/12 11:29:42;;;;;;;3.43;3.17;;;14.60;99.90;;;;;;10549278;28;20221;-80
2023/04/12 11:34:47;;;;;;;3.20;3.00;;;14.60;99.90;;;;;;10525973;28;20291;-80
2023/04/12 11:39:52;;;;;;;3.63;2.90;;;14.60;99.90;;;;;;10509968;28;20788;-80
2023/04/12 11:44:55;;;;;;;3.00;2.80;;;14.60;99.90;;;;;;10521105;28;20227;-80
2023/04/12 11:49:59;;;;;;;1.70;1.53;;;14.60;99.90;;;;;;10545939;28;20215;-80
2023/04/12 11:55:03;;;;;;;2.90;2.60;;;14.60;99.90;;;;;;10506757;28;20192;-80
2023/04/12 12:00:07;;;;;;;2.53;2.33;;;14.70;99.90;;;;;;10466545;28;20629;-79
2023/04/12 12:05:16;;;;;;;1.40;1.30;;;14.80;99.90;;;;;;10470424;28;20309;-80
2023/04/12 12:10:19;;;;;;;2.17;2.07;;;14.90;99.90;;;;;;10545293;28;20252;-80
2023/04/12 12:15:21;;;;;;;2.13;2.03;;;14.90;99.90;;;;;;10514731;28;20435;-80
2023/04/12 12:20:26;;;;;;;3.03;2.20;;;14.90;99.90;;;;;;10523157;28;20244;-80
2023/04/12 12:25:29;;;;;;;2.20;2.10;;;15.00;99.90;;;;;;10459805;28;20214;-80
2023/04/12 12:30:32;;;;;;;2.37;2.27;;;15.20;99.90;;;;;;10543477;28;20316;-80
2023/04/12 12:35:37;;;;;;;16.50;14.90;;;15.30;99.90;;;;;;10520313;28;20259;-80
2023/04/12 12:40:39;;;;;;;2.57;2.37;;;15.40;99.90;;;;;;10528028;28;20247;-80
2023/04/12 12:45:41;;;;;;;2.60;2.40;;;15.50;99.90;;;;;;10543677;28;20269;-80
2023/04/12 12:50:45;;;;;;;3.53;2.40;;;15.60;99.90;;;;;;10507320;28;20209;-80
2023/04/12 12:55:47;;;;;;;2.20;2.10;;;15.90;99.90;;;;;;10502908;28;20186;-80
2023/04/12 13:00:49;;;;;;;2.30;2.10;;;16.10;99.90;;;;;;10543720;28;20220;-80
2023/04/12 13:05:54;;;;;;;2.00;1.90;;;16.10;99.90;;;;;;10504614;28;20212;-80
2023/04/12 13:10:56;;;;;;;2.03;1.93;;;16.00;99.90;;;;;;10514412;28;20225;-80
2023/04/12 13:15:58;;;;;;;2.50;2.10;;;16.10;99.90;;;;;;10541061;28;20280;-80
2023/04/12 13:21:02;;;;;;;2.60;2.40;;;16.20;99.90;;;;;;10505824;28;20221;-80
2023/04/12 13:26:04;;;;;;;2.43;2.30;;;16.20;99.90;;;;;;10540941;28;20270;-80
2023/04/12 13:31:06;;;;;;;4.73;2.27;;;16.20;99.90;;;;;;10547262;28;20213;-80
2023/04/12 13:36:10;;;;;;;2.00;1.90;;;16.00;99.90;;;;;;10544210;28;20220;-79
2023/04/12 13:41:12;;;;;;;2.80;2.10;;;16.00;99.90;;;;;;10509401;28;20315;-80
2023/04/12 13:46:14;;;;;;;2.10;2.00;;;15.90;99.90;;;;;;10515736;28;20193;-80
2023/04/12 13:51:18;;;;;;;2.00;1.90;;;16.00;99.90;;;;;;10536668;28;20208;-80
2023/04/12 13:56:20;;;;;;;2.03;1.83;;;16.10;99.90;;;;;;10506686;28;20661;-80
2023/04/12 14:01:23;;;;;;;2.20;2.00;;;16.20;99.90;;;;;;10508644;28;20209;-80
2023/04/12 14:06:28;;;;;;;4.17;2.30;;;16.10;99.90;;;;;;10504845;28;20229;-80
2023/04/12 14:11:30;;;;;;;2.20;1.97;;;16.00;99.90;;;;;;10532891;28;20228;-80
2023/04/12 14:16:32;;;;;;;1.97;1.87;;;15.90;99.90;;;;;;10545072;28;20667;-80
2023/04/12 14:21:36;;;;;;;2.40;2.20;;;16.00;99.90;;;;;;10521465;28;20214;-80
2023/04/12 14:26:39;;;;;;;1.87;1.30;;;16.10;99.70;;;;;;10520525;28;20196;-80
2023/04/12 14:31:41;;;;;;;2.30;2.10;;;16.20;99.90;;;;;;10528502;28;20271;-80
2023/04/12 14:36:44;;;;;;;4.63;4.10;;;16.10;99.90;;;;;;10542701;28;20296;-80
2023/04/12 14:41:46;;;;;;;2.10;2.00;;;16.00;99.90;;;;;;10546276;28;20223;-80
2023/04/12 14:46:48;;;;;;;4.57;2.10;;;16.10;99.90;;;;;;10537809;28;20614;-80
2023/04/12 14:51:52;;;;;;;1.77;1.67;;;16.10;98.90;;;;;;10505377;28;20218;-80
2023/04/12 14:56:54;;;;;;;2.33;2.20;;;16.10;99.80;;;;;;10530899;28;20280;-80
2023/04/12 15:01:58;;;;;;;1.90;1.80;;;16.10;99.30;;;;;;10514294;28;20205;-80
2023/04/12 15:07:01;;;;;;;1.97;1.87;;;16.00;99.80;;;;;;10539466;28;20193;-80
2023/04/12 15:12:03;;;;;;;2.10;2.00;;;16.10;99.10;;;;;;10559242;28;20193;-80
2023/04/12 15:17:05;;;;;;;2.07;1.97;;;16.00;98.50;;;;;;10516943;28;20219;-80
2023/04/12 15:22:08;;;;;;;7.47;5.97;;;15.90;99.70;;;;;;10529111;28;20692;-80
2023/04/12 15:27:11;;;;;;;2.13;1.90;;;15.90;99.60;;;;;;10519069;28;20559;-80
2023/04/12 15:32:13;;;;;;;4.47;2.03;;;15.40;99.90;;;;;;10518176;28;20199;-80
2023/04/12 15:37:16;;;;;;;2.47;2.37;;;14.80;99.90;;;;;;10537833;28;20623;-80
2023/04/12 15:42:19;;;;;;;3.63;2.40;;;14.20;99.90;;;;;;10519746;28;20263;-80
2023/04/12 15:47:21;;;;;;;2.00;1.90;;;13.70;99.90;;;;;;10473710;28;20241;-80
2023/04/12 15:52:25;;;;;;;2.60;2.50;;;13.30;99.90;;;;;;10527166;28;20278;-79
2023/04/12 15:57:27;;;;;;;2.50;2.40;;;13.00;99.90;;;;;;10514507;28;20304;-80
2023/04/12 16:02:29;;;;;;;2.43;2.27;;;12.90;99.90;;;;;;10526267;28;20212;-80
2023/04/12 16:07:33;;;;;;;2.80;2.40;;;13.00;99.90;;;;;;10518404;28;20228;-80
2023/04/12 16:12:35;;;;;;;2.47;2.30;;;13.00;99.90;;;;;;10533303;28;20692;-80
2023/04/12 16:17:37;;;;;;;2.03;2.00;;;12.90;99.90;;;;;;10539229;28;20224;-80
2023/04/12 16:22:41;;;;;;;2.20;2.10;;;13.00;99.90;;;;;;10521778;28;20230;-80
2023/04/12 16:27:43;;;;;;;2.53;2.43;;;13.10;99.90;;;;;;10530382;28;20224;-80
2023/04/12 16:32:46;;;;;;;3.00;2.80;;;13.20;99.90;;;;;;10535198;28;20199;-80
2023/04/12 16:37:50;;;;;;;2.20;2.10;;;13.20;99.90;;;;;;10536340;28;20245;-80
2023/04/12 16:42:52;;;;;;;2.10;2.00;;;13.30;99.90;;;;;;10530014;28;20220;-80
2023/04/12 16:47:54;;;;;;;2.20;2.20;;;13.30;99.90;;;;;;10527767;28;20271;-80
2023/04/12 16:53:04;;;;;;;3.80;3.00;;;13.30;99.90;;;;;;10524254;27;20531;-81
2023/04/12 16:58:06;;;;;;;2.20;2.10;;;13.30;99.90;;;;;;10511449;28;20220;-80
2023/04/12 17:03:10;;;;;;;3.00;2.80;;;13.30;99.90;;;;;;10493407;28;20197;-80
2023/04/12 17:08:14;;;;;;;2.37;2.20;;;13.20;99.90;;;;;;10490610;28;20262;-80
2023/04/12 17:13:16;;;;;;;2.03;1.93;;;13.10;99.90;;;;;;10490484;28;20293;-80
2023/04/12 17:18:18;;;;;;;2.33;2.23;;;13.00;99.90;;;;;;10491537;28;20275;-80
2023/04/12 17:23:21;;;;;;;1.90;1.90;;;13.00;99.90;;;;;;10490048;28;20200;-79
2023/04/12 17:28:23;;;;;;;1.90;1.83;;;12.90;99.90;;;;;;10491177;28;20551;-79
2023/04/12 17:33:27;;;;;;;2.10;2.00;;;12.90;99.90;;;;;;10489949;28;20305;-79
2023/04/12 17:38:30;;;;;;;2.53;2.40;;;12.90;99.90;;;;;;10491320;28;20214;-80
2023/04/12 17:43:33;;;;;;;2.50;2.40;;;12.80;99.90;;;;;;10495189;28;20189;-80
2023/04/12 17:48:35;;;;;;;2.40;2.30;;;12.80;99.90;;;;;;10488175;28;20315;-79
2023/04/12 17:53:38;;;;;;;2.50;2.40;;;12.80;99.90;;;;;;10490382;28;20197;-79
2023/04/12 17:58:40;;;;;;;1.83;1.73;;;12.80;99.90;;;;;;10488568;28;20236;-79
2023/04/12 18:03:42;;;;;;;1.73;1.63;;;12.80;99.90;;;;;;10464067;28;20263;-79
2023/04/12 18:08:46;;;;;;;2.60;2.50;;;12.70;99.90;;;;;;10461399;28;20626;-80
2023/04/12 18:13:48;;;;;;;1.80;1.80;;;12.60;99.90;;;;;;10460934;28;20213;-79
2023/04/12 18:18:50;;;;;;;1.93;1.83;;;12.60;99.90;;;;;;10467254;28;20244;-79
2023/04/12 18:23:53;;;;;;;1.90;1.80;;;12.50;99.90;;;;;;10460058;28;20225;-80
2023/04/12 18:28:55;;;;;;;1.90;1.80;;;12.40;99.90;;;;;;10460121;28;20666;-79
2023/04/12 18:33:57;;;;;;;2.30;2.20;;;12.30;99.90;;;;;;10460663;28;20233;-80
2023/04/12 18:39:01;;;;;;;2.60;2.40;;;12.30;99.90;;;;;;10461270;28;20705;-79
2023/04/12 18:44:03;;;;;;;3.00;2.80;;;12.20;99.90;;;;;;10460618;28;20251;-79
2023/04/12 18:49:07;;;;;;;2.20;2.10;;;12.20;99.90;;;;;;10459045;28;20249;-79
2023/04/12 18:54:13;;;;;;;1.67;1.67;;;12.10;99.90;;;;;;10460288;28;20216;-79
2023/04/12 18:59:16;;;;;;;2.67;2.53;;;12.10;99.90;;;;;;10459508;28;20701;-79
2023/04/12 19:04:18;;;;;;;2.37;2.27;;;12.00;99.90;;;;;;10459440;28;20272;-79
2023/04/12 19:09:22;;;;;;;2.30;2.10;;;11.90;99.90;;;;;;10460171;28;20312;-80
2023/04/12 19:14:26;;;;;;;2.73;2.50;;;11.80;99.90;;;;;;10459202;28;20197;-79
2023/04/12 19:19:28;;;;;;;2.00;1.83;;;11.80;99.90;;;;;;10459781;28;20670;-79
2023/04/12 19:24:32;;;;;;;2.10;2.00;;;11.80;99.90;;;;;;10461507;28;20194;-80
2023/04/12 19:29:34;;;;;;;1.90;1.80;;;11.80;99.90;;;;;;10461103;28;20218;-79
2023/04/12 19:34:36;;;;;;;2.40;2.00;;;11.80;99.90;;;;;;10458670;28;20202;-80
2023/04/12 19:39:40;;;;;;;1.70;1.70;;;11.80;99.90;;;;;;10460036;28;20229;-80
2023/04/12 19:44:42;;;;;;;2.27;1.83;;;11.80;99.90;;;;;;10464240;28;20209;-80
2023/04/12 19:49:45;;;;;;;2.37;2.27;;;11.90;99.90;;;;;;10468362;28;20214;-80
2023/04/12 19:54:51;;;;;;;2.10;2.00;;;11.80;99.90;;;;;;10467133;28;20209;-80
2023/04/12 19:59:54;;;;;;;2.20;2.00;;;11.80;99.90;;;;;;10458266;28;20470;-80
2023/04/12 20:04:56;;;;;;;1.97;1.87;;;11.90;99.90;;;;;;10459389;28;20194;-79
2023/04/12 20:09:59;;;;;;;2.33;2.23;;;11.80;99.90;;;;;;10460056;28;20221;-79
2023/04/12 20:15:03;;;;;;;2.00;1.90;;;11.80;99.90;;;;;;10457656;28;20205;-79
2023/04/12 20:20:09;;;;;;;2.30;2.00;;;11.80;99.90;;;;;;10457297;28;20552;-79
2023/04/12 20:25:13;;;;;;;3.27;2.20;;;11.80;99.90;;;;;;10455231;28;20198;-80
2023/04/12 20:30:15;;;;;;;1.80;1.70;;;11.80;99.90;;;;;;10456212;28;20210;-79
2023/04/12 20:35:17;;;;;;;2.27;2.07;;;11.80;99.90;;;;;;10437380;28;20198;-79
2023/04/12 20:40:25;;;;;;;2.20;2.10;;;11.80;99.90;;;;;;10457220;28;20206;-79
2023/04/12 20:45:27;;;;;;;2.30;2.20;;;11.80;99.90;;;;;;10456272;28;20198;-80
2023/04/12 20:50:32;;;;;;;2.07;1.97;;;11.80;99.90;;;;;;10457913;28;20218;-80
2023/04/12 20:55:35;;;;;;;1.97;1.87;;;11.80;99.90;;;;;;10463182;28;20590;-80
2023/04/12 21:00:38;;;;;;;3.00;2.80;;;11.80;99.90;;;;;;10478809;28;20214;-80
2023/04/12 21:05:40;;;;;;;9.63;8.73;;;11.60;99.90;;;;;;10480003;28;20216;-80
2023/04/12 21:10:46;;;;;;;7.03;6.43;;;11.30;99.90;;;;;;10461998;28;20271;-81
2023/04/12 21:15:51;;;;;;;5.90;5.67;;;10.90;99.90;;;;;;10461438;28;20198;-82
2023/04/12 21:20:54;;;;;;;4.20;4.10;;;10.60;99.90;;;;;;10459857;28;20383;-81
2023/04/12 21:25:57;;;;;;;5.90;5.70;;;10.30;99.90;;;;;;10452280;28;20227;-81
2023/04/12 21:30:59;;;;;;;6.30;6.00;;;10.10;99.90;;;;;;10441837;28;20209;-80
2023/04/12 21:36:02;;;;;;;6.30;6.10;;;9.90;99.90;;;;;;10462256;28;20198;-80
2023/04/12 21:41:10;;;;;;;6.50;6.27;;;9.80;99.90;;;;;;10470797;28;20703;-81
2023/04/12 21:46:12;;;;;;;5.30;5.10;;;9.70;99.90;;;;;;10470923;28;20231;-81
2023/04/12 21:51:14;;;;;;;4.50;4.40;;;9.70;99.90;;;;;;10477706;28;20239;-80
2023/04/12 21:56:22;;;;;;;5.03;4.83;;;9.60;99.90;;;;;;10469184;28;20717;-81
2023/04/12 22:01:24;;;;;;;4.90;4.60;;;9.50;99.90;;;;;;10452166;28;20206;-80
2023/04/12 22:06:27;;;;;;;4.67;4.47;;;9.50;99.90;;;;;;10470132;28;20261;-81
2023/04/12 22:11:31;;;;;;;5.50;5.10;;;9.50;99.90;;;;;;10473319;28;20247;-81
2023/04/12 22:16:33;;;;;;;4.77;4.57;;;9.50;99.90;;;;;;10484562;28;20216;-81
2023/04/12 22:21:36;;;;;;;4.50;4.40;;;9.60;99.90;;;;;;10469110;28;20214;-81
2023/04/12 22:26:39;;;;;;;4.20;4.10;;;9.70;99.90;;;;;;10471149;28;20211;-81
2023/04/12 22:31:42;;;;;;;4.20;4.10;;;9.80;99.90;;;;;;10468753;28;20611;-80
2023/04/12 22:36:46;;;;;;;4.13;4.03;;;9.80;99.90;;;;;;10464133;28;20211;-81
2023/04/12 22:41:52;;;;;;;5.00;4.80;;;9.80;99.90;;;;;;10468370;28;20222;-80
2023/04/12 22:46:55;;;;;;;5.90;5.13;;;9.80;99.90;;;;;;10467883;28;20243;-80
2023/04/12 22:52:00;;;;;;;13.07;7.67;;;9.90;99.90;;;;;;10470280;28;20267;-80
2023/04/12 22:57:06;;;;;;;13.43;6.97;;;10.00;99.90;;;;;;10469631;28;20204;-81
2023/04/12 23:02:08;;;;;;;4.03;3.83;;;9.90;99.90;;;;;;10478253;28;20201;-80
2023/04/12 23:07:11;;;;;;;17.20;8.87;;;9.90;99.90;;;;;;10468127;28;20251;-80
2023/04/12 23:12:15;;;;;;;3.80;3.60;;;10.00;99.90;;;;;;10464822;28;20221;-81
2023/04/12 23:17:18;;;;;;;10.20;5.33;;;9.90;99.90;;;;;;10448545;28;20218;-81
2023/04/12 23:22:32;;;;;;;3.40;3.30;;;9.90;99.90;;;;;;10464435;28;20199;-81
2023/04/12 23:27:37;;;;;;;3.27;3.17;;;9.90;99.90;;;;;;10463663;28;20236;-81
2023/04/12 23:32:40;;;;;;;2.97;2.77;;;9.80;99.90;;;;;;10464638;28;20261;-82
2023/04/12 23:37:42;;;;;;;4.47;4.17;;;9.70;99.90;;;;;;10466774;28;20225;-81
2023/04/12 23:42:47;;;;;;;5.00;4.63;;;9.50;99.90;;;;;;10465900;28;20530;-81
2023/04/12 23:47:49;;;;;;;3.60;3.50;;;9.40;99.90;;;;;;10468879;28;20221;-80
2023/04/12 23:52:51;;;;;;;3.20;3.10;;;9.40;99.90;;;;;;10469182;28;20297;-80
2023/04/12 23:57:55;;;;;;;3.30;3.20;;;9.30;99.90;;;;;;10462562;28;20209;-80
